Time;durP1;ratioP1;P1;durP2;ratioP2;P2;SDS_P1;SDS_P2;PMS_P1;PMS_P2;Temp;Humidity;BMP_temperature;BMP_pressure;BME280_temperature;BME280_humidity;BME280_pressure;Samples;Min_cycle;Max_cycle;Signal;HPM_P1;HPM_P2
2023/01/13 00:01:31;;;;;;;0.50;0.50;;;9.70;99.90;;;;;;5038347;27;20265;-90
2023/01/13 00:04:00;;;;;;;0.60;0.60;;;9.70;99.90;;;;;;5036149;27;20046;-87
2023/01/13 00:06:26;;;;;;;0.57;0.57;;;9.60;99.90;;;;;;5021474;27;20058;-87
2023/01/13 00:08:52;;;;;;;0.60;0.60;;;9.60;99.90;;;;;;5030224;27;20129;-86
2023/01/13 00:11:19;;;;;;;0.60;0.60;;;9.50;99.90;;;;;;5044688;27;20039;-86
2023/01/13 00:13:45;;;;;;;0.50;0.50;;;9.50;99.90;;;;;;5032287;27;20055;-90
2023/01/13 00:16:17;;;;;;;0.60;0.60;;;9.50;99.90;;;;;;5024989;27;20042;-88
2023/01/13 00:18:43;;;;;;;0.50;0.50;;;9.50;99.90;;;;;;5033555;27;20055;-88
2023/01/13 00:21:14;;;;;;;0.50;0.50;;;9.40;99.90;;;;;;5046369;27;20130;-92
2023/01/13 00:23:40;;;;;;;0.50;0.50;;;9.40;99.90;;;;;;5036963;27;20050;-87
2023/01/13 00:26:20;;;;;;;0.50;0.50;;;9.30;99.90;;;;;;5033174;27;20047;-89
2023/01/13 00:28:49;;;;;;;0.50;0.50;;;9.30;99.90;;;;;;5030988;27;20047;-88
2023/01/13 00:31:19;;;;;;;0.50;0.50;;;9.30;99.90;;;;;;5030377;27;20039;-88
2023/01/13 00:33:54;;;;;;;0.60;0.60;;;9.30;99.90;;;;;;5031700;27;20620;-87
2023/01/13 00:36:20;;;;;;;0.50;0.50;;;9.30;99.90;;;;;;5027561;27;20050;-90
2023/01/13 00:38:47;;;;;;;0.60;0.60;;;9.30;99.90;;;;;;5009353;27;20124;-90
2023/01/13 00:41:18;;;;;;;0.50;0.50;;;9.30;99.90;;;;;;5015208;27;20063;-90
2023/01/13 00:43:45;;;;;;;0.60;0.60;;;9.20;99.90;;;;;;5025472;27;20403;-87
2023/01/13 00:46:15;;;;;;;0.55;0.55;;;9.20;99.90;;;;;;5032787;27;20150;-87
2023/01/13 00:48:41;;;;;;;0.60;0.60;;;9.30;99.90;;;;;;5044032;27;20146;-88
2023/01/13 00:51:15;;;;;;;0.52;0.52;;;9.20;99.90;;;;;;5030091;27;20981;-86
2023/01/13 00:53:44;;;;;;;0.60;0.60;;;9.20;99.90;;;;;;5027094;27;20486;-88
2023/01/13 00:56:21;;;;;;;0.50;0.50;;;9.00;99.90;;;;;;5046705;27;20499;-86
2023/01/13 00:58:47;;;;;;;0.50;0.50;;;9.00;99.90;;;;;;5029363;27;20839;-87
2023/01/13 01:01:16;;;;;;;0.60;0.60;;;9.00;99.90;;;;;;5047979;27;20095;-88
2023/01/13 01:03:43;;;;;;;0.60;0.60;;;9.00;99.90;;;;;;5031774;27;20099;-87
2023/01/13 01:06:15;;;;;;;0.60;0.60;;;8.90;99.90;;;;;;5024230;27;20253;-87
2023/01/13 01:08:42;;;;;;;0.60;0.60;;;8.90;99.90;;;;;;5052838;27;20303;-88
2023/01/13 01:11:13;;;;;;;0.50;0.50;;;8.90;99.90;;;;;;5019138;27;20165;-88
2023/01/13 01:13:39;;;;;;;0.50;0.50;;;9.00;99.90;;;;;;5047248;27;20046;-88
2023/01/13 01:16:08;;;;;;;0.50;0.50;;;9.00;99.90;;;;;;5037743;27;20518;-85
2023/01/13 01:18:36;;;;;;;0.60;0.60;;;9.00;99.90;;;;;;5047006;27;20362;-87
2023/01/13 01:21:03;;;;;;;0.60;0.60;;;9.00;99.90;;;;;;5058683;27;20110;-88
2023/01/13 01:23:31;;;;;;;0.50;0.50;;;9.10;99.90;;;;;;5026708;27;20054;-87
2023/01/13 01:26:01;;;;;;;0.60;0.60;;;9.00;99.90;;;;;;5040749;27;20084;-87
2023/01/13 01:28:27;;;;;;;0.50;0.50;;;9.10;99.90;;;;;;5049485;27;20055;-88
2023/01/13 01:30:57;;;;;;;0.60;0.60;;;9.10;99.90;;;;;;5033613;27;20155;-87
2023/01/13 01:33:25;;;;;;;0.50;0.50;;;9.10;99.90;;;;;;5050290;27;20051;-87
2023/01/13 01:35:52;;;;;;;0.55;0.55;;;9.10;99.90;;;;;;5051331;27;20068;-89
2023/01/13 01:38:20;;;;;;;0.60;0.60;;;9.30;99.90;;;;;;5016560;27;20272;-88
2023/01/13 01:40:46;;;;;;;0.60;0.60;;;9.30;99.90;;;;;;5010038;27;20512;-86
2023/01/13 01:46:03;;;;;;;0.52;0.52;;;9.30;99.90;;;;;;5050091;27;20541;-87
2023/01/13 01:48:36;;;;;;;0.60;0.60;;;9.30;99.90;;;;;;5016398;27;20053;-87
2023/01/13 01:51:02;;;;;;;0.60;0.60;;;9.20;99.90;;;;;;5044408;27;20522;-88
2023/01/13 01:53:30;;;;;;;0.60;0.60;;;9.10;99.90;;;;;;5027651;27;20049;-86
2023/01/13 01:55:58;;;;;;;0.50;0.50;;;9.10;99.90;;;;;;5037502;27;20047;-86
2023/01/13 01:58:31;;;;;;;0.50;0.50;;;9.00;99.90;;;;;;5051774;27;20469;-87
2023/01/13 02:00:57;;;;;;;0.60;0.60;;;8.90;99.90;;;;;;5043370;27;20499;-88
2023/01/13 02:03:26;;;;;;;0.60;0.60;;;8.90;99.90;;;;;;5048625;27;20106;-89
2023/01/13 02:05:52;;;;;;;0.57;0.57;;;8.80;99.90;;;;;;5083484;27;20046;-87
2023/01/13 02:08:19;;;;;;;0.60;0.60;;;8.80;99.90;;;;;;5043868;27;20043;-87
2023/01/13 02:10:49;;;;;;;0.50;0.50;;;8.70;99.90;;;;;;5040110;27;20815;-87
2023/01/13 02:13:15;;;;;;;0.50;0.50;;;8.70;99.90;;;;;;5020173;27;20039;-87
2023/01/13 02:15:56;;;;;;;0.60;0.60;;;8.60;99.90;;;;;;5009785;27;20039;-86
2023/01/13 02:18:52;;;;;;;0.52;0.52;;;8.60;99.90;;;;;;5029332;27;20107;-87
2023/01/13 02:21:34;;;;;;;0.60;0.60;;;8.50;99.90;;;;;;5031147;27;20082;-87
2023/01/13 02:27:43;;;;;;;0.60;0.60;;;8.40;99.90;;;;;;5049726;27;20431;-86
2023/01/13 02:33:08;;;;;;;0.60;0.60;;;8.40;99.90;;;;;;5044828;27;20053;-88
2023/01/13 02:35:58;;;;;;;0.60;0.60;;;8.40;99.90;;;;;;5036520;27;20047;-88
2023/01/13 02:38:37;;;;;;;0.60;0.60;;;8.40;99.90;;;;;;5031756;27;20047;-88
2023/01/13 02:44:07;;;;;;;0.60;0.60;;;8.30;99.90;;;;;;5052357;27;20046;-87
2023/01/13 02:46:32;;;;;;;0.60;0.60;;;8.30;99.90;;;;;;5052966;27;20508;-87
2023/01/13 02:49:04;;;;;;;0.60;0.60;;;8.20;99.90;;;;;;5024342;27;20051;-87
2023/01/13 02:51:31;;;;;;;0.50;0.50;;;8.30;99.90;;;;;;5047446;27;20755;-87
2023/01/13 02:54:00;;;;;;;0.60;0.60;;;8.30;99.90;;;;;;5022536;27;20638;-88
2023/01/13 02:56:27;;;;;;;0.50;0.50;;;8.20;99.90;;;;;;5045236;27;20035;-87
2023/01/13 02:58:56;;;;;;;0.60;0.60;;;8.20;99.90;;;;;;5042735;27;20039;-87
2023/01/13 03:01:23;;;;;;;0.60;0.60;;;8.20;99.90;;;;;;5032602;27;20038;-86
2023/01/13 03:03:49;;;;;;;0.57;0.57;;;8.20;99.90;;;;;;5048483;27;20829;-87
2023/01/13 03:06:39;;;;;;;0.60;0.60;;;8.30;99.90;;;;;;5035904;27;20042;-87
2023/01/13 03:09:25;;;;;;;0.50;0.50;;;8.40;99.90;;;;;;5048519;27;20759;-86
2023/01/13 03:12:30;;;;;;;0.60;0.60;;;8.30;99.90;;;;;;5030476;27;20074;-88
2023/01/13 03:15:14;;;;;;;0.60;0.60;;;8.30;99.90;;;;;;5033270;27;20055;-87
2023/01/13 03:18:08;;;;;;;0.60;0.60;;;8.40;99.90;;;;;;5047206;27;20050;-88
2023/01/13 03:20:40;;;;;;;0.60;0.60;;;8.40;99.90;;;;;;5020112;27;20544;-87
2023/01/13 03:23:28;;;;;;;0.50;0.50;;;8.40;99.90;;;;;;5042839;27;20264;-87
2023/01/13 03:26:09;;;;;;;0.60;0.60;;;8.50;99.90;;;;;;5046410;27;21163;-87
2023/01/13 03:28:45;;;;;;;0.60;0.60;;;8.50;99.90;;;;;;5030014;27;20104;-87
2023/01/13 03:31:20;;;;;;;0.60;0.60;;;8.60;99.90;;;;;;5020173;27;20059;-86
2023/01/13 03:34:04;;;;;;;0.50;0.50;;;8.60;99.90;;;;;;5040174;27;20625;-87
2023/01/13 03:36:35;;;;;;;0.60;0.60;;;8.60;99.90;;;;;;5035527;28;20044;-87
2023/01/13 03:39:08;;;;;;;0.60;0.60;;;8.70;99.90;;;;;;5026155;27;20046;-89
2023/01/13 03:41:39;;;;;;;0.60;0.60;;;8.70;99.90;;;;;;5040724;27;20377;-87
2023/01/13 03:44:23;;;;;;;0.60;0.60;;;8.70;99.90;;;;;;5027527;28;20047;-88
2023/01/13 03:47:05;;;;;;;0.60;0.60;;;8.70;99.90;;;;;;5041121;27;20044;-87
2023/01/13 03:49:42;;;;;;;0.60;0.60;;;8.60;99.90;;;;;;5040240;28;20080;-87
2023/01/13 03:52:14;;;;;;;0.60;0.60;;;8.50;99.90;;;;;;5055336;27;20437;-88
2023/01/13 03:54:58;;;;;;;0.50;0.50;;;8.40;99.90;;;;;;5026452;28;20055;-87
2023/01/13 03:57:30;;;;;;;0.60;0.60;;;8.50;99.90;;;;;;5040931;28;20676;-89
2023/01/13 03:59:59;;;;;;;0.60;0.60;;;8.60;99.90;;;;;;5027123;28;20047;-87
2023/01/13 04:02:42;;;;;;;0.60;0.60;;;8.50;99.90;;;;;;5048509;28;20850;-87
2023/01/13 04:05:09;;;;;;;0.60;0.60;;;8.60;99.90;;;;;;5050756;28;20130;-88
2023/01/13 04:08:03;;;;;;;0.60;0.60;;;8.50;99.90;;;;;;5041294;28;20343;-88
2023/01/13 04:10:37;;;;;;;;;;;8.50;99.90;;;;;;5044324;28;20047;-87
2023/01/13 04:13:11;;;;;;;0.60;0.60;;;8.50;99.90;;;;;;5024041;28;20008;-88
2023/01/13 04:15:41;;;;;;;0.60;0.60;;;8.50;99.90;;;;;;5048187;28;20499;-87
2023/01/13 04:18:14;;;;;;;0.60;0.60;;;8.50;99.90;;;;;;5042378;28;20100;-88
2023/01/13 04:20:41;;;;;;;0.52;0.52;;;8.50;99.90;;;;;;5027699;28;20050;-87
2023/01/13 04:23:08;;;;;;;0.50;0.50;;;8.40;99.90;;;;;;5049080;28;20395;-87
2023/01/13 04:25:34;;;;;;;0.60;0.60;;;8.40;99.90;;;;;;5047706;28;20051;-87
2023/01/13 04:28:00;;;;;;;0.60;0.60;;;8.30;99.90;;;;;;5033016;28;20774;-86
2023/01/13 04:30:26;;;;;;;0.60;0.60;;;8.40;99.90;;;;;;5046168;28;20048;-86
2023/01/13 04:32:52;;;;;;;0.60;0.60;;;8.40;99.90;;;;;;5034963;28;20046;-87
2023/01/13 04:35:18;;;;;;;0.60;0.60;;;8.40;99.90;;;;;;5023514;28;20410;-88
2023/01/13 04:37:44;;;;;;;0.60;0.60;;;8.50;99.90;;;;;;5037685;28;20128;-87
2023/01/13 04:40:10;;;;;;;0.60;0.60;;;8.50;99.90;;;;;;5036319;28;20076;-86
2023/01/13 04:42:35;;;;;;;0.60;0.60;;;8.60;99.90;;;;;;5047889;27;20164;-87
2023/01/13 04:45:01;;;;;;;0.60;0.60;;;8.60;99.90;;;;;;5023346;27;20043;-87
2023/01/13 04:47:27;;;;;;;0.60;0.60;;;8.60;99.90;;;;;;5032591;27;20142;-87
2023/01/13 04:49:53;;;;;;;0.60;0.60;;;8.60;99.90;;;;;;5042059;27;20467;-89
2023/01/13 04:52:18;;;;;;;0.60;0.60;;;8.60;99.90;;;;;;5028812;27;20895;-87
2023/01/13 04:54:44;;;;;;;0.60;0.60;;;8.60;99.90;;;;;;5026721;28;20068;-87
2023/01/13 04:57:10;;;;;;;0.60;0.60;;;8.60;99.90;;;;;;5017523;27;20379;-87
2023/01/13 04:59:36;;;;;;;0.60;0.60;;;8.60;99.90;;;;;;5016887;27;20051;-88
2023/01/13 05:02:02;;;;;;;0.60;0.60;;;8.60;99.90;;;;;;5042857;27;21104;-86
2023/01/13 05:04:27;;;;;;;0.60;0.60;;;8.60;99.90;;;;;;5016988;27;20182;-88
2023/01/13 05:06:53;;;;;;;0.60;0.60;;;8.60;99.90;;;;;;5028803;27;20958;-86
2023/01/13 05:09:19;;;;;;;0.60;0.60;;;8.60;99.90;;;;;;5039370;27;20083;-89
2023/01/13 05:17:19;;;;;;;0.60;0.60;;;8.50;99.90;;;;;;5051333;27;20266;-88
2023/01/13 05:19:45;;;;;;;0.60;0.60;;;8.50;99.90;;;;;;5038631;27;20485;-87
2023/01/13 05:27:39;;;;;;;0.60;0.60;;;8.30;99.90;;;;;;5037484;27;20063;-86
2023/01/13 05:30:07;;;;;;;0.60;0.60;;;8.30;99.90;;;;;;5050068;27;20051;-86
2023/01/13 05:32:33;;;;;;;0.60;0.60;;;8.30;99.90;;;;;;5053784;27;20420;-86
2023/01/13 05:34:59;;;;;;;0.60;0.60;;;8.20;99.90;;;;;;5050465;27;20047;-86
2023/01/13 05:37:26;;;;;;;0.60;0.60;;;8.30;99.90;;;;;;5052512;27;20127;-87
2023/01/13 05:45:22;;;;;;;0.60;0.60;;;8.20;99.90;;;;;;5043504;27;20548;-85
2023/01/13 05:47:49;;;;;;;0.60;0.60;;;8.20;99.90;;;;;;5035996;27;20047;-88
2023/01/13 05:50:15;;;;;;;0.60;0.60;;;8.30;99.90;;;;;;5046983;27;20047;-87
2023/01/13 05:52:44;;;;;;;0.60;0.60;;;8.30;99.90;;;;;;5032603;27;20047;-88
2023/01/13 05:55:10;;;;;;;0.60;0.60;;;8.20;99.90;;;;;;5051628;27;20574;-86
2023/01/13 05:57:36;;;;;;;0.60;0.60;;;8.30;99.90;;;;;;5045795;27;21567;-87
2023/01/13 06:00:04;;;;;;;0.60;0.60;;;8.30;99.90;;;;;;5006326;27;20047;-87
2023/01/13 06:02:30;;;;;;;0.60;0.60;;;8.40;99.90;;;;;;5000224;27;20450;-88
2023/01/13 06:04:55;;;;;;;0.60;0.60;;;8.40;99.90;;;;;;5018085;27;20142;-87
2023/01/13 06:07:21;;;;;;;0.60;0.60;;;8.40;99.90;;;;;;5019649;27;20062;-86
2023/01/13 06:09:47;;;;;;;0.60;0.60;;;8.40;99.90;;;;;;5023873;27;20047;-87
2023/01/13 06:12:13;;;;;;;0.60;0.60;;;8.30;99.90;;;;;;4995346;27;20095;-87
2023/01/13 06:14:39;;;;;;;0.60;0.60;;;8.30;99.90;;;;;;5019185;27;20062;-87
2023/01/13 06:17:10;;;;;;;0.60;0.60;;;8.30;99.90;;;;;;5022145;27;20039;-88
2023/01/13 06:19:36;;;;;;;0.50;0.50;;;8.20;99.90;;;;;;5020253;27;20043;-89
2023/01/13 06:22:16;;;;;;;0.60;0.60;;;8.20;99.90;;;;;;5043221;27;20375;-86
2023/01/13 06:24:44;;;;;;;0.60;0.60;;;8.20;99.90;;;;;;5028309;27;20047;-87
2023/01/13 06:27:11;;;;;;;0.60;0.60;;;8.30;99.90;;;;;;5027413;28;20047;-86
2023/01/13 06:29:37;;;;;;;0.60;0.60;;;8.30;99.90;;;;;;5047761;27;20513;-88
2023/01/13 06:32:10;;;;;;;0.60;0.60;;;8.30;99.90;;;;;;5031488;27;20101;-87
2023/01/13 06:34:37;;;;;;;0.60;0.60;;;8.30;99.90;;;;;;5053936;27;20216;-88
2023/01/13 06:37:04;;;;;;;0.60;0.60;;;8.20;99.90;;;;;;5045875;27;20058;-87
2023/01/13 06:39:31;;;;;;;0.50;0.50;;;8.30;99.90;;;;;;5030968;27;20484;-89
2023/01/13 06:44:44;;;;;;;0.60;0.60;;;8.30;99.90;;;;;;5050965;27;20104;-86
2023/01/13 06:47:09;;;;;;;0.60;0.60;;;8.50;99.90;;;;;;5048790;27;20040;-87
2023/01/13 06:49:35;;;;;;;0.60;0.60;;;8.40;99.90;;;;;;5048355;27;20050;-87
2023/01/13 06:52:01;;;;;;;0.60;0.60;;;8.40;99.90;;;;;;5032589;27;20044;-88
2023/01/13 06:54:27;;;;;;;0.60;0.60;;;8.50;99.90;;;;;;5018335;27;20241;-86
2023/01/13 06:56:52;;;;;;;0.60;0.60;;;8.50;99.90;;;;;;5023826;27;20078;-86
2023/01/13 06:59:18;;;;;;;0.50;0.50;;;8.40;99.90;;;;;;5024646;27;20392;-86
2023/01/13 07:01:44;;;;;;;0.60;0.60;;;8.40;99.90;;;;;;5028830;27;20812;-88
2023/01/13 07:04:10;;;;;;;0.60;0.60;;;8.40;99.90;;;;;;5028611;27;20050;-87
2023/01/13 07:06:38;;;;;;;0.50;0.50;;;8.50;99.90;;;;;;5046104;27;20573;-86
2023/01/13 07:09:04;;;;;;;0.60;0.60;;;8.40;99.90;;;;;;5034768;27;20808;-86
2023/01/13 07:11:30;;;;;;;0.50;0.50;;;8.50;99.90;;;;;;5044483;27;20126;-88
2023/01/13 07:16:43;;;;;;;0.60;0.60;;;8.50;99.90;;;;;;5059241;27;20138;-87
2023/01/13 07:19:11;;;;;;;0.60;0.60;;;8.50;99.90;;;;;;5013750;27;20057;-90
2023/01/13 07:21:37;;;;;;;0.60;0.60;;;8.40;99.90;;;;;;5031817;27;20043;-88
2023/01/13 07:24:03;;;;;;;0.60;0.60;;;8.50;99.90;;;;;;5042112;27;20250;-87
2023/01/13 07:26:29;;;;;;;0.50;0.50;;;8.50;99.90;;;;;;5046195;27;20051;-86
2023/01/13 07:28:55;;;;;;;0.60;0.60;;;8.50;99.90;;;;;;5022769;27;20038;-88
2023/01/13 07:31:21;;;;;;;0.60;0.60;;;8.50;99.90;;;;;;5027637;27;20416;-86
2023/01/13 07:33:47;;;;;;;0.60;0.60;;;8.50;99.90;;;;;;5030653;27;20042;-89
2023/01/13 07:36:14;;;;;;;0.60;0.60;;;8.50;99.90;;;;;;5022377;27;20039;-87
2023/01/13 07:38:43;;;;;;;0.60;0.60;;;8.60;99.90;;;;;;5039625;27;20042;-88
2023/01/13 07:44:01;;;;;;;0.60;0.60;;;8.60;99.90;;;;;;5042820;27;20058;-86
2023/01/13 07:46:27;;;;;;;0.60;0.60;;;8.60;99.90;;;;;;5040888;27;20134;-87
2023/01/13 07:48:53;;;;;;;0.60;0.60;;;8.60;99.90;;;;;;5041287;27;20046;-86
2023/01/13 07:51:19;;;;;;;0.50;0.50;;;8.60;99.90;;;;;;5008880;27;20569;-87
2023/01/13 07:53:45;;;;;;;0.60;0.60;;;8.70;99.90;;;;;;5006532;27;20089;-87
2023/01/13 07:56:11;;;;;;;0.60;0.60;;;8.70;99.90;;;;;;5017677;27;20042;-88
2023/01/13 07:58:37;;;;;;;0.60;0.60;;;8.70;99.90;;;;;;5042645;27;20050;-86
2023/01/13 08:01:07;;;;;;;0.60;0.60;;;8.80;99.90;;;;;;5046092;27;20042;-88
2023/01/13 08:03:33;;;;;;;0.60;0.60;;;8.80;99.90;;;;;;5063974;27;20561;-87
2023/01/13 08:06:05;;;;;;;0.60;0.60;;;8.80;99.90;;;;;;5008892;27;20179;-88
2023/01/13 08:08:31;;;;;;;0.60;0.60;;;8.80;99.90;;;;;;5027072;27;20039;-88
2023/01/13 08:11:01;;;;;;;0.60;0.60;;;8.80;99.90;;;;;;5044344;27;20271;-87
2023/01/13 08:13:27;;;;;;;0.60;0.60;;;8.70;99.90;;;;;;5045991;27;20097;-87
2023/01/13 08:16:02;;;;;;;0.60;0.60;;;8.70;99.90;;;;;;5035173;27;20535;-88
2023/01/13 08:18:29;;;;;;;0.60;0.60;;;8.80;99.90;;;;;;5046443;27;20047;-90
2023/01/13 08:20:59;;;;;;;0.60;0.60;;;8.80;99.90;;;;;;5030997;27;20042;-87
2023/01/13 08:23:25;;;;;;;0.60;0.60;;;8.80;99.90;;;;;;5027599;27;20443;-89
2023/01/13 08:25:54;;;;;;;0.60;0.60;;;8.80;99.90;;;;;;5018495;27;20580;-90
2023/01/13 08:28:19;;;;;;;0.60;0.60;;;8.80;99.90;;;;;;5027355;27;20519;-88
2023/01/13 08:30:45;;;;;;;0.60;0.60;;;8.80;99.90;;;;;;5044442;27;20070;-90
2023/01/13 08:33:12;;;;;;;0.60;0.60;;;8.90;99.90;;;;;;5025699;27;20127;-87
2023/01/13 08:35:39;;;;;;;0.60;0.60;;;8.90;99.90;;;;;;5045406;27;20434;-87
2023/01/13 08:38:07;;;;;;;0.60;0.60;;;8.80;99.90;;;;;;5006049;27;20935;-87
2023/01/13 08:40:33;;;;;;;0.60;0.60;;;8.70;99.90;;;;;;5025432;27;20511;-88
2023/01/13 08:43:00;;;;;;;0.60;0.60;;;8.70;99.90;;;;;;5024902;27;20062;-88
2023/01/13 08:45:28;;;;;;;0.60;0.60;;;8.70;99.90;;;;;;5033508;27;20249;-88
2023/01/13 08:47:57;;;;;;;0.63;0.63;;;8.60;99.90;;;;;;5019984;27;20058;-87
2023/01/13 08:50:26;;;;;;;0.60;0.60;;;8.60;99.90;;;;;;5002435;27;20306;-88
2023/01/13 08:52:51;;;;;;;0.60;0.60;;;8.60;99.90;;;;;;5027284;28;20046;-87
2023/01/13 08:55:20;;;;;;;0.60;0.60;;;8.60;99.90;;;;;;5035947;27;20802;-94
2023/01/13 08:57:48;;;;;;;0.60;0.60;;;8.60;99.90;;;;;;5032518;27;20044;-86
2023/01/13 09:00:15;;;;;;;0.60;0.60;;;8.50;99.90;;;;;;5047900;27;20430;-90
2023/01/13 09:02:41;;;;;;;0.60;0.60;;;8.60;99.90;;;;;;5026277;27;20850;-88
2023/01/13 09:05:08;;;;;;;0.60;0.60;;;8.60;99.90;;;;;;5029667;27;20465;-88
2023/01/13 09:07:36;;;;;;;0.60;0.60;;;8.60;99.90;;;;;;5036719;27;20520;-90
2023/01/13 09:10:04;;;;;;;0.60;0.60;;;8.50;99.90;;;;;;5021834;27;20035;-87
2023/01/13 09:15:21;;;;;;;0.60;0.60;;;8.40;99.90;;;;;;5044506;27;20128;-90
2023/01/13 09:17:50;;;;;;;0.60;0.60;;;8.40;99.90;;;;;;5033101;27;21095;-87
2023/01/13 09:20:18;;;;;;;0.60;0.60;;;8.30;99.90;;;;;;5024994;27;20051;-88
2023/01/13 09:22:44;;;;;;;0.60;0.60;;;8.40;99.90;;;;;;5025406;27;20101;-88
2023/01/13 09:25:11;;;;;;;0.60;0.60;;;8.50;99.90;;;;;;5031469;27;20131;-87
2023/01/13 09:27:37;;;;;;;0.60;0.60;;;8.50;99.90;;;;;;5001016;27;20757;-88
2023/01/13 09:30:04;;;;;;;0.60;0.60;;;8.50;99.90;;;;;;5029561;27;20054;-88
2023/01/13 09:32:30;;;;;;;0.60;0.60;;;8.50;99.90;;;;;;5020956;27;20039;-87
2023/01/13 09:34:58;;;;;;;0.60;0.60;;;8.50;99.90;;;;;;5012120;28;20124;-88
2023/01/13 09:37:43;;;;;;;0.60;0.60;;;8.50;99.90;;;;;;5030938;27;20933;-88
2023/01/13 09:40:17;;;;;;;0.60;0.60;;;8.60;99.90;;;;;;5045264;27;20333;-86
2023/01/13 09:46:42;;;;;;;0.60;0.60;;;8.70;99.90;;;;;;5032352;27;20059;-85
2023/01/13 09:48:57;;;;;;;0.60;0.60;;;8.80;99.90;;;;;;5041087;27;20089;-89
2023/01/13 09:51:51;;;;;;;0.60;0.60;;;8.90;99.90;;;;;;5030287;27;20389;-88
2023/01/13 09:54:32;;;;;;;0.70;0.70;;;8.90;99.90;;;;;;5005969;27;20052;-88
2023/01/13 09:56:59;;;;;;;0.60;0.60;;;8.90;99.90;;;;;;5040112;27;20567;-89
2023/01/13 09:59:35;;;;;;;0.60;0.60;;;9.00;99.90;;;;;;5034753;27;20459;-87
2023/01/13 10:02:29;;;;;;;0.60;0.60;;;9.00;99.90;;;;;;5050782;27;20047;-89
2023/01/13 10:05:24;;;;;;;0.60;0.60;;;8.90;99.90;;;;;;5027967;27;20158;-87
2023/01/13 10:07:56;;;;;;;0.60;0.60;;;8.90;99.90;;;;;;5023652;28;20052;-89
2023/01/13 10:10:35;;;;;;;0.60;0.60;;;8.80;99.90;;;;;;5023683;27;20906;-88
2023/01/13 10:13:23;;;;;;;0.60;0.60;;;8.70;99.90;;;;;;5023697;27;20105;-87
2023/01/13 10:16:01;;;;;;;0.60;0.60;;;8.70;99.90;;;;;;5025365;27;20047;-88
2023/01/13 10:18:34;;;;;;;0.60;0.60;;;8.80;99.90;;;;;;5039447;27;20579;-88
2023/01/13 10:21:15;;;;;;;0.60;0.60;;;8.70;99.90;;;;;;5053180;27;20040;-88
2023/01/13 10:24:26;;;;;;;0.60;0.60;;;8.70;99.90;;;;;;5049378;27;20069;-90
2023/01/13 10:27:03;;;;;;;0.60;0.60;;;8.60;99.90;;;;;;5016406;27;20454;-87
2023/01/13 10:29:30;;;;;;;0.60;0.60;;;8.60;99.90;;;;;;5045799;27;20047;-86
2023/01/13 10:31:58;;;;;;;0.60;0.60;;;8.60;99.90;;;;;;5041719;27;20082;-88
2023/01/13 10:34:25;;;;;;;0.60;0.60;;;8.70;99.90;;;;;;5043719;27;20366;-87
2023/01/13 10:37:08;;;;;;;0.60;0.60;;;8.70;99.90;;;;;;5046990;27;20939;-86
2023/01/13 10:39:43;;;;;;;0.60;0.60;;;8.60;99.90;;;;;;5045501;27;20214;-88
2023/01/13 10:42:15;;;;;;;0.60;0.60;;;8.70;99.90;;;;;;5043854;27;20054;-87
2023/01/13 10:44:50;;;;;;;0.60;0.60;;;8.70;99.90;;;;;;5042043;27;20104;-87
2023/01/13 10:47:22;;;;;;;0.60;0.60;;;8.60;99.90;;;;;;5045514;27;20039;-88
2023/01/13 10:50:01;;;;;;;0.60;0.60;;;8.60;99.90;;;;;;5030414;27;20131;-85
2023/01/13 10:52:32;;;;;;;0.60;0.60;;;8.60;99.90;;;;;;5048791;27;20666;-88
2023/01/13 10:55:01;;;;;;;;;;;8.60;99.90;;;;;;5035136;27;20074;-87
2023/01/13 10:57:27;;;;;;;0.60;0.60;;;8.60;99.90;;;;;;5050885;27;20288;-88
2023/01/13 10:59:56;;;;;;;0.60;0.60;;;8.70;99.90;;;;;;5032621;27;20893;-87
2023/01/13 11:02:38;;;;;;;0.60;0.60;;;8.70;99.90;;;;;;5034163;27;20075;-88
2023/01/13 11:05:24;;;;;;;0.60;0.60;;;8.70;99.90;;;;;;5048925;27;20406;-86
2023/01/13 11:07:53;;;;;;;0.60;0.60;;;8.70;99.90;;;;;;5031560;27;20519;-91
2023/01/13 11:10:49;;;;;;;0.60;0.60;;;8.80;99.90;;;;;;5015785;27;20053;-88
2023/01/13 11:13:20;;;;;;;0.60;0.60;;;8.80;99.90;;;;;;5028750;27;20450;-87
2023/01/13 11:15:54;;;;;;;0.60;0.60;;;8.80;99.90;;;;;;5042391;27;20453;-87
2023/01/13 11:19:10;;;;;;;0.60;0.60;;;8.90;99.90;;;;;;5025486;28;20043;-88
2023/01/13 11:22:01;;;;;;;0.60;0.60;;;9.00;99.90;;;;;;5048218;27;20835;-87
2023/01/13 11:24:35;;;;;;;0.60;0.60;;;9.10;99.90;;;;;;5048670;27;20051;-87
2023/01/13 11:27:23;;;;;;;0.60;0.60;;;9.10;99.90;;;;;;5049850;27;20492;-87
2023/01/13 11:30:11;;;;;;;0.60;0.60;;;9.10;99.90;;;;;;5027854;27;20047;-88
2023/01/13 11:33:00;;;;;;;0.60;0.60;;;9.10;99.90;;;;;;5046785;27;20112;-87
2023/01/13 11:35:28;;;;;;;0.60;0.60;;;9.10;99.90;;;;;;5033664;27;20049;-87
2023/01/13 11:38:11;;;;;;;0.60;0.60;;;9.10;99.90;;;;;;5031447;27;20055;-90
2023/01/13 11:40:47;;;;;;;0.60;0.60;;;9.00;99.90;;;;;;5031180;27;20081;-88
2023/01/13 11:43:18;;;;;;;0.60;0.60;;;9.10;99.90;;;;;;5031055;27;20099;-88
2023/01/13 11:45:50;;;;;;;0.60;0.60;;;9.10;99.90;;;;;;5042998;27;20155;-91
2023/01/13 11:48:25;;;;;;;0.60;0.60;;;9.10;99.90;;;;;;5042160;27;20046;-86
2023/01/13 11:51:12;;;;;;;0.60;0.60;;;9.10;99.90;;;;;;5051883;27;20039;-87
2023/01/13 11:53:57;;;;;;;0.60;0.60;;;9.20;99.90;;;;;;5034016;27;20325;-91
2023/01/13 11:56:38;;;;;;;0.60;0.60;;;9.10;99.90;;;;;;5050886;27;20047;-90
2023/01/13 11:59:26;;;;;;;0.60;0.60;;;9.10;99.90;;;;;;5027349;27;20096;-88
2023/01/13 12:02:00;;;;;;;0.60;0.60;;;9.10;99.90;;;;;;5026919;27;20953;-88
2023/01/13 12:04:26;;;;;;;0.60;0.60;;;9.00;99.90;;;;;;5024922;27;20392;-89
2023/01/13 12:07:35;;;;;;;0.60;0.60;;;9.00;99.90;;;;;;5049701;27;20254;-90
2023/01/13 12:10:37;;;;;;;0.50;0.50;;;8.90;99.90;;;;;;4998572;27;20062;-90
2023/01/13 12:13:12;;;;;;;0.57;0.57;;;9.00;99.90;;;;;;5035908;27;20038;-90
2023/01/13 12:15:53;;;;;;;0.60;0.60;;;9.00;99.90;;;;;;5041334;27;20551;-87
2023/01/13 12:18:56;;;;;;;0.52;0.52;;;9.00;99.90;;;;;;5040744;27;20050;-87
2023/01/13 12:21:36;;;;;;;0.60;0.60;;;8.90;99.90;;;;;;5028504;27;20101;-89
2023/01/13 12:24:21;;;;;;;0.60;0.60;;;9.00;99.90;;;;;;5033683;27;20855;-91
2023/01/13 12:27:02;;;;;;;0.52;0.52;;;8.90;99.90;;;;;;5038396;27;20210;-88
2023/01/13 12:29:36;;;;;;;0.60;0.60;;;9.00;99.90;;;;;;5035883;27;20575;-87
2023/01/13 12:32:03;;;;;;;;;;;9.00;99.90;;;;;;5058118;27;20047;-88
2023/01/13 12:35:05;;;;;;;0.60;0.60;;;8.90;99.90;;;;;;5052602;27;19930;-86
2023/01/13 12:37:43;;;;;;;0.60;0.60;;;8.90;99.90;;;;;;4976955;28;20036;-91
2023/01/13 12:40:28;;;;;;;0.60;0.60;;;8.90;99.90;;;;;;5037820;27;20055;-87
2023/01/13 12:46:22;;;;;;;0.60;0.60;;;8.90;99.90;;;;;;5045243;27;20166;-89
2023/01/13 12:48:53;;;;;;;0.60;0.60;;;8.90;99.90;;;;;;5049820;27;20055;-87
2023/01/13 12:51:42;;;;;;;0.60;0.60;;;8.90;99.90;;;;;;5040576;27;20131;-88
2023/01/13 12:54:36;;;;;;;0.60;0.60;;;8.90;99.90;;;;;;5028973;27;20054;-88
2023/01/13 12:57:24;;;;;;;0.63;0.63;;;8.90;99.90;;;;;;5040768;27;20038;-88
2023/01/13 13:00:14;;;;;;;0.60;0.60;;;8.80;99.90;;;;;;5028381;27;20043;-88
2023/01/13 13:02:42;;;;;;;0.60;0.60;;;8.80;99.90;;;;;;5015155;27;20849;-88
2023/01/13 13:05:14;;;;;;;0.60;0.60;;;8.80;99.90;;;;;;5031074;27;20619;-88
2023/01/13 13:07:59;;;;;;;0.60;0.60;;;8.80;99.90;;;;;;5044287;27;20582;-89
2023/01/13 13:10:36;;;;;;;0.60;0.60;;;8.70;99.90;;;;;;5034525;27;21069;-88
2023/01/13 13:13:25;;;;;;;0.60;0.60;;;8.70;99.90;;;;;;5043882;27;20761;-88
2023/01/13 13:16:34;;;;;;;0.60;0.60;;;8.70;99.90;;;;;;5035861;27;20055;-86
2023/01/13 13:19:19;;;;;;;0.60;0.60;;;8.70;99.90;;;;;;5037384;27;20126;-87
2023/01/13 13:22:16;;;;;;;0.60;0.60;;;8.70;99.90;;;;;;5038512;27;20035;-87
2023/01/13 13:24:48;;;;;;;0.60;0.60;;;8.70;99.90;;;;;;5054798;27;20374;-88
2023/01/13 13:27:36;;;;;;;0.60;0.60;;;8.70;99.90;;;;;;5038458;27;20066;-89
2023/01/13 13:30:32;;;;;;;0.60;0.60;;;8.60;99.90;;;;;;5043029;27;20039;-86
2023/01/13 13:33:34;;;;;;;0.60;0.60;;;8.60;99.90;;;;;;5048048;27;20046;-90
2023/01/13 13:36:06;;;;;;;0.60;0.60;;;8.70;99.90;;;;;;5034167;27;20043;-88
2023/01/13 13:47:14;;;;;;;0.60;0.60;;;8.70;99.90;;;;;;5063306;27;20162;-89
2023/01/13 13:49:51;;;;;;;0.60;0.60;;;8.70;99.90;;;;;;5029289;27;20524;-86
2023/01/13 13:52:38;;;;;;;0.60;0.60;;;8.70;99.90;;;;;;5031045;27;20129;-89
2023/01/13 13:55:27;;;;;;;0.60;0.60;;;8.80;99.90;;;;;;5052148;27;20042;-86
2023/01/13 13:57:56;;;;;;;0.60;0.60;;;8.80;99.90;;;;;;5042027;27;20058;-86
2023/01/13 14:00:32;;;;;;;0.60;0.60;;;8.80;99.90;;;;;;5051763;27;20446;-90
2023/01/13 14:03:00;;;;;;;0.60;0.60;;;8.80;99.90;;;;;;5062308;27;20170;-90
2023/01/13 14:05:34;;;;;;;0.60;0.60;;;8.90;99.90;;;;;;5045631;27;20613;-87
2023/01/13 14:08:13;;;;;;;0.60;0.60;;;8.90;99.90;;;;;;5046397;27;20476;-87
2023/01/13 14:10:41;;;;;;;0.60;0.60;;;8.80;99.90;;;;;;5042412;27;20442;-88
2023/01/13 14:13:21;;;;;;;0.60;0.60;;;8.90;99.90;;;;;;5030510;27;20047;-88
2023/01/13 14:15:59;;;;;;;0.60;0.60;;;8.90;99.90;;;;;;5053321;27;20329;-86
2023/01/13 14:18:29;;;;;;;0.60;0.60;;;8.90;99.90;;;;;;5051892;27;20392;-88
2023/01/13 14:21:00;;;;;;;0.60;0.60;;;8.90;99.90;;;;;;5040960;27;20421;-89
2023/01/13 14:23:29;;;;;;;0.60;0.60;;;8.80;99.90;;;;;;5047039;27;20288;-90